Time;durP1;ratioP1;P1;durP2;ratioP2;P2;SDS_P1;SDS_P2;PMS_P1;PMS_P2;Temp;Humidity;BMP_temperature;BMP_pressure;BME280_temperature;BME280_humidity;BME280_pressure;Samples;Min_cycle;Max_cycle;Signal;HPM_P1;HPM_P2
2023/11/08 00:01:00;;;;;;;;;;;;;;;14.40;59.77;99772.75;5075522;28;19912;-77
2023/11/08 00:03:26;;;;;;;;;;;;;;;14.35;59.70;99785.81;5092845;28;20324;-76
2023/11/08 00:05:51;;;;;;;;;;;;;;;14.29;59.70;99779.44;5075245;28;19919;-76
2023/11/08 00:08:16;;;;;;;;;;;;;;;14.27;60.01;99773.50;5092947;28;19919;-76
2023/11/08 00:10:41;;;;;;;;;;;;;;;14.26;59.98;99758.59;5093030;28;19916;-76
2023/11/08 00:13:07;;;;;;;;;;;;;;;14.28;59.56;99769.84;5074899;28;19912;-76
2023/11/08 00:15:33;;;;;;;;;;;;;;;14.28;60.25;99769.03;5093038;28;19920;-76
2023/11/08 00:17:58;;;;;;;;;;;;;;;14.26;59.96;99758.59;5093390;28;19912;-77
2023/11/08 00:20:23;;;;;;;;;;;;;;;14.24;59.61;99765.94;5074875;28;19984;-76
2023/11/08 00:22:49;;;;;;;;;;;;;;;14.23;59.79;99755.50;5092926;28;19912;-77
2023/11/08 00:25:15;;;;;;;;;;;;;;;14.21;60.27;99754.88;5075254;28;20432;-77
2023/11/08 00:27:40;;;;;;;;;;;;;;;14.18;59.57;99764.06;5074519;28;19912;-77
2023/11/08 00:30:05;;;;;;;;;;;;;;;14.13;60.28;99757.69;5092590;28;19916;-77
2023/11/08 00:32:32;;;;;;;;;;;;;;;14.08;60.16;99757.44;5092966;28;20404;-77
2023/11/08 00:34:57;;;;;;;;;;;;;;;14.06;60.06;99760.28;5092818;28;20029;-77
2023/11/08 00:37:23;;;;;;;;;;;;;;;14.03;60.08;99759.84;5091594;28;20400;-76
2023/11/08 00:39:49;;;;;;;;;;;;;;;13.97;60.24;99761.47;5092418;28;20320;-77
2023/11/08 00:42:14;;;;;;;;;;;;;;;13.91;59.92;99763.06;5074238;28;19965;-76
2023/11/08 00:44:40;;;;;;;;;;;;;;;13.87;60.11;99756.50;5092328;28;19991;-77
2023/11/08 00:47:05;;;;;;;;;;;;;;;13.73;60.31;99754.75;5092305;28;19912;-76
2023/11/08 00:49:30;;;;;;;;;;;;;;;13.70;60.25;99746.38;5092293;28;20018;-77
2023/11/08 00:51:59;;;;;;;;;;;;;;;13.74;60.15;99739.66;5074006;28;19974;-77
2023/11/08 00:54:25;;;;;;;;;;;;;;;13.76;60.40;99727.03;5092262;28;19948;-77
2023/11/08 00:56:50;;;;;;;;;;;;;;;13.72;60.72;99731.91;5092251;28;19912;-77
2023/11/08 00:59:16;;;;;;;;;;;;;;;13.69;60.89;99737.59;5092837;28;19908;-77
2023/11/08 01:01:41;;;;;;;;;;;;;;;13.60;60.71;99736.09;5092401;28;19912;-77
2023/11/08 01:04:11;;;;;;;;;;;;;;;13.59;60.66;99731.78;5073907;28;19956;-77
2023/11/08 01:06:36;;;;;;;;;;;;;;;13.62;60.45;99726.94;5092233;28;19969;-76
2023/11/08 01:09:02;;;;;;;;;;;;;;;13.61;61.14;99713.84;5090720;28;20335;-77
2023/11/08 01:11:28;;;;;;;;;;;;;;;13.61;61.01;99708.53;5092098;28;20016;-77
2023/11/08 01:13:53;;;;;;;;;;;;;;;13.63;60.93;99706.53;5092109;28;19912;-77
2023/11/08 01:16:20;;;;;;;;;;;;;;;13.69;60.34;99711.06;5091694;28;19916;-77
2023/11/08 01:18:46;;;;;;;;;;;;;;;13.75;60.09;99701.50;5092098;28;19912;-76
2023/11/08 01:21:12;;;;;;;;;;;;;;;13.75;60.65;99699.66;5092069;28;20434;-77
2023/11/08 01:23:38;;;;;;;;;;;;;;;13.78;60.11;99695.78;5092035;28;19919;-77
2023/11/08 01:26:04;;;;;;;;;;;;;;;13.80;60.06;99689.28;5073927;28;19912;-77
2023/11/08 01:28:30;;;;;;;;;;;;;;;13.79;60.21;99671.72;5091940;28;19919;-77
2023/11/08 01:30:55;;;;;;;;;;;;;;;13.84;60.10;99671.13;5092196;28;19920;-75
2023/11/08 01:33:21;;;;;;;;;;;;;;;13.84;60.12;99674.59;5091892;28;19919;-77
2023/11/08 01:35:46;;;;;;;;;;;;;;;13.83;60.19;99666.84;5073699;28;19955;-76
2023/11/08 01:38:12;;;;;;;;;;;;;;;13.84;60.40;99676.44;5073574;28;19912;-77
2023/11/08 01:40:38;;;;;;;;;;;;;;;13.83;60.22;99670.31;5091777;28;19919;-77
2023/11/08 01:43:04;;;;;;;;;;;;;;;13.80;60.44;99665.41;5091798;28;19912;-76
2023/11/08 01:45:29;;;;;;;;;;;;;;;13.81;60.31;99668.88;5091806;28;19950;-78
2023/11/08 01:47:54;;;;;;;;;;;;;;;13.76;60.35;99673.94;5092103;28;19912;-76
2023/11/08 01:50:20;;;;;;;;;;;;;;;13.67;60.56;99668.78;5091781;28;20052;-76
2023/11/08 01:52:45;;;;;;;;;;;;;;;13.64;60.52;99665.72;5091798;28;20391;-76
2023/11/08 01:55:11;;;;;;;;;;;;;;;13.65;60.68;99667.34;5091617;28;19927;-77
2023/11/08 01:57:37;;;;;;;;;;;;;;;13.66;60.42;99674.28;5091754;28;19913;-76
2023/11/08 02:00:04;;;;;;;;;;;;;;;13.64;60.78;99671.00;5091865;28;19919;-77
2023/11/08 02:02:30;;;;;;;;;;;;;;;13.63;60.37;99656.13;5091459;28;20415;-77
2023/11/08 02:04:55;;;;;;;;;;;;;;;13.59;60.82;99641.59;5091375;28;19912;-77
2023/11/08 02:07:21;;;;;;;;;;;;;;;13.61;60.45;99629.78;5091579;28;19912;-77
2023/11/08 02:09:47;;;;;;;;;;;;;;;13.61;61.26;99624.47;5091831;28;19919;-77
2023/11/08 02:12:12;;;;;;;;;;;;;;;13.59;60.87;99625.69;5091488;28;19969;-77
2023/11/08 02:14:56;;;;;;;;;;;;;;;13.62;60.94;99618.16;5091428;28;19969;-77
2023/11/08 02:17:21;;;;;;;;;;;;;;;13.68;60.65;99619.19;5091583;28;19916;-77
2023/11/08 02:19:47;;;;;;;;;;;;;;;13.71;60.30;99613.50;5091570;28;19919;-76
2023/11/08 02:22:12;;;;;;;;;;;;;;;13.68;60.62;99609.41;5091331;28;20402;-76
2023/11/08 02:24:38;;;;;;;;;;;;;;;13.68;60.74;99597.97;5073174;28;19923;-77
2023/11/08 02:27:03;;;;;;;;;;;;;;;13.72;60.26;99604.53;5092745;28;19951;-76
2023/11/08 02:29:28;;;;;;;;;;;;;;;13.74;61.00;99613.09;5095076;28;19912;-77
2023/11/08 02:31:54;;;;;;;;;;;;;;;13.76;60.86;99620.88;5076811;28;19973;-76
2023/11/08 02:34:19;;;;;;;;;;;;;;;13.72;60.74;99620.44;5095382;28;19912;-77
2023/11/08 02:36:44;;;;;;;;;;;;;;;13.68;60.70;99613.91;5096448;28;19974;-77
2023/11/08 02:39:10;;;;;;;;;;;;;;;13.61;60.51;99621.81;5095823;28;19912;-76
2023/11/08 02:41:35;;;;;;;;;;;;;;;13.54;61.15;99631.56;5077213;28;20395;-77
2023/11/08 02:44:01;;;;;;;;;;;;;;;13.46;60.80;99625.59;5095205;28;19991;-77
2023/11/08 02:46:27;;;;;;;;;;;;;;;13.44;61.14;99623.16;5095245;28;20113;-77
2023/11/08 02:48:56;;;;;;;;;;;;;;;13.50;61.12;99610.94;5076489;28;20400;-76
2023/11/08 02:51:22;;;;;;;;;;;;;;;13.52;61.21;99601.78;5094442;28;19985;-77
2023/11/08 02:53:48;;;;;;;;;;;;;;;13.57;60.63;99603.84;5094746;28;19912;-76
2023/11/08 02:56:15;;;;;;;;;;;;;;;13.60;61.08;99604.25;5094644;28;20316;-76
2023/11/08 02:58:41;;;;;;;;;;;;;;;13.62;60.75;99620.81;5094882;28;19970;-77
2023/11/08 03:01:06;;;;;;;;;;;;;;;13.62;60.71;99628.75;5076580;28;20324;-76
2023/11/08 03:03:31;;;;;;;;;;;;;;;13.61;60.71;99623.66;5094342;28;19934;-77
2023/11/08 03:05:57;;;;;;;;;;;;;;;13.62;60.56;99631.41;5094475;28;20010;-76
2023/11/08 03:08:22;;;;;;;;;;;;;;;13.63;60.85;99640.19;5094462;28;19920;-77
2023/11/08 03:10:47;;;;;;;;;;;;;;;13.63;60.91;99642.84;5094329;28;19954;-77
2023/11/08 03:13:12;;;;;;;;;;;;;;;13.57;60.42;99641.78;5076133;28;19913;-77
2023/11/08 03:15:38;;;;;;;;;;;;;;;13.44;61.29;99632.94;5094141;28;19912;-76
2023/11/08 03:18:03;;;;;;;;;;;;;;;13.46;60.99;99629.06;5076177;28;20392;-76
2023/11/08 03:20:29;;;;;;;;;;;;;;;13.51;60.95;99621.34;5094393;28;19946;-77
2023/11/08 03:22:54;;;;;;;;;;;;;;;13.54;61.43;99620.97;5094248;28;19912;-78
2023/11/08 03:25:19;;;;;;;;;;;;;;;13.57;61.21;99628.53;5075844;28;19912;-76
2023/11/08 03:27:46;;;;;;;;;;;;;;;13.61;60.63;99631.63;5093772;28;19912;-77
2023/11/08 03:30:15;;;;;;;;;;;;;;;13.58;61.23;99630.16;5093897;28;19914;-77
2023/11/08 03:32:40;;;;;;;;;;;;;;;13.61;61.29;99619.16;5094117;28;19969;-77
2023/11/08 03:35:06;;;;;;;;;;;;;;;13.57;61.24;99620.56;5092628;28;19912;-76
2023/11/08 03:37:35;;;;;;;;;;;;;;;13.52;61.99;99603.59;5093835;28;19913;-77
2023/11/08 03:40:02;;;;;;;;;;;;;;;13.51;61.58;99599.31;5093352;28;19961;-76
2023/11/08 03:42:27;;;;;;;;;;;;;;;13.54;61.85;99607.69;5094054;28;19999;-76
2023/11/08 03:44:53;;;;;;;;;;;;;;;13.53;62.49;99607.91;5075559;28;19959;-77
2023/11/08 03:47:18;;;;;;;;;;;;;;;13.53;61.45;99618.50;5093673;28;19912;-76
2023/11/08 03:49:44;;;;;;;;;;;;;;;13.54;61.38;99612.19;5075599;28;19923;-76
2023/11/08 03:52:09;;;;;;;;;;;;;;;13.50;61.58;99605.63;5075483;28;19920;-76
2023/11/08 03:54:34;;;;;;;;;;;;;;;13.49;61.54;99609.28;5093627;28;19919;-76
2023/11/08 03:57:00;;;;;;;;;;;;;;;13.51;61.52;99610.75;5093620;28;19912;-77
2023/11/08 03:59:26;;;;;;;;;;;;;;;13.53;61.18;99610.53;5093530;28;20308;-77
2023/11/08 04:01:51;;;;;;;;;;;;;;;13.53;61.11;99621.16;5075434;28;19919;-77
2023/11/08 04:04:16;;;;;;;;;;;;;;;13.56;60.57;99626.06;5093224;28;19920;-77
2023/11/08 04:06:42;;;;;;;;;;;;;;;13.51;61.20;99633.78;5093298;28;19920;-77
2023/11/08 04:09:07;;;;;;;;;;;;;;;13.48;60.77;99636.84;5093194;28;19987;-76
2023/11/08 04:11:32;;;;;;;;;;;;;;;13.45;61.06;99634.56;5093140;28;19969;-76
2023/11/08 04:13:58;;;;;;;;;;;;;;;13.35;61.12;99632.22;5093165;28;19995;-76
2023/11/08 04:16:23;;;;;;;;;;;;;;;13.28;61.30;99631.38;5093025;28;19912;-77
2023/11/08 04:18:49;;;;;;;;;;;;;;;13.24;60.86;99615.03;5092874;28;20368;-77
2023/11/08 04:21:15;;;;;;;;;;;;;;;13.18;61.28;99622.94;5092880;28;19920;-76
2023/11/08 04:23:40;;;;;;;;;;;;;;;13.16;61.29;99623.09;5074775;28;19919;-77
2023/11/08 04:26:06;;;;;;;;;;;;;;;13.11;61.14;99616.72;5092914;28;19934;-76
2023/11/08 04:28:32;;;;;;;;;;;;;;;13.07;61.65;99608.34;5074727;28;19912;-76
2023/11/08 04:30:58;;;;;;;;;;;;;;;13.04;61.66;99627.28;5092889;28;19916;-76
2023/11/08 04:33:23;;;;;;;;;;;;;;;13.00;61.29;99626.84;5092857;28;19912;-77
2023/11/08 04:35:49;;;;;;;;;;;;;;;13.00;61.82;99615.44;5092825;28;19919;-76
2023/11/08 04:38:14;;;;;;;;;;;;;;;13.02;61.56;99618.72;5074477;28;19988;-77
2023/11/08 04:40:39;;;;;;;;;;;;;;;13.03;61.71;99629.13;5092624;28;19912;-77
2023/11/08 04:43:05;;;;;;;;;;;;;;;13.03;61.36;99612.41;5092591;28;19927;-77
2023/11/08 04:45:31;;;;;;;;;;;;;;;13.04;61.81;99606.06;5092891;28;19912;-77
2023/11/08 04:47:56;;;;;;;;;;;;;;;13.04;61.37;99611.38;5092682;28;20315;-77
2023/11/08 04:50:21;;;;;;;;;;;;;;;13.05;61.18;99611.19;5092341;28;19912;-76
2023/11/08 04:52:46;;;;;;;;;;;;;;;13.04;61.90;99632.59;5092414;28;20301;-76
2023/11/08 04:55:12;;;;;;;;;;;;;;;13.01;62.24;99639.09;5092471;28;19973;-77
2023/11/08 04:57:37;;;;;;;;;;;;;;;13.00;62.95;99629.50;5092452;28;20411;-77
2023/11/08 05:00:05;;;;;;;;;;;;;;;13.01;63.23;99617.88;5092384;28;19912;-77
2023/11/08 05:02:34;;;;;;;;;;;;;;;13.00;62.78;99620.72;5092483;28;20351;-77
2023/11/08 05:05:00;;;;;;;;;;;;;;;12.97;62.42;99621.09;5092362;28;19976;-77
2023/11/08 05:07:25;;;;;;;;;;;;;;;12.89;63.22;99615.94;5092306;28;20384;-77
2023/11/08 05:09:53;;;;;;;;;;;;;;;12.88;65.44;99619.59;5092019;28;20393;-76
2023/11/08 05:12:19;;;;;;;;;;;;;;;12.84;64.87;99635.06;5073841;28;19916;-77
2023/11/08 05:14:44;;;;;;;;;;;;;;;12.81;65.76;99643.41;5091899;28;19919;-76
2023/11/08 05:17:09;;;;;;;;;;;;;;;12.86;65.08;99666.69;5091991;28;20282;-76
2023/11/08 05:19:35;;;;;;;;;;;;;;;12.86;64.74;99659.53;5091992;28;19912;-77
2023/11/08 05:22:00;;;;;;;;;;;;;;;12.87;66.06;99658.53;5091892;28;19912;-77
2023/11/08 05:24:25;;;;;;;;;;;;;;;12.83;66.55;99667.88;5091692;28;20312;-76
2023/11/08 05:26:51;;;;;;;;;;;;;;;12.80;66.71;99662.13;5091657;28;20300;-77
2023/11/08 05:29:18;;;;;;;;;;;;;;;12.79;66.27;99648.06;5091691;28;19912;-76
2023/11/08 05:31:44;;;;;;;;;;;;;;;12.75;66.93;99640.69;5091529;28;19999;-76
2023/11/08 05:34:09;;;;;;;;;;;;;;;12.72;68.02;99632.09;5073717;28;19955;-77
2023/11/08 05:36:36;;;;;;;;;;;;;;;12.82;67.76;99623.84;5091879;28;19946;-76
2023/11/08 05:39:02;;;;;;;;;;;;;;;12.90;68.72;99622.88;5091908;28;19991;-76
2023/11/08 05:41:27;;;;;;;;;;;;;;;12.97;68.94;99629.88;5091876;28;20377;-76
2023/11/08 05:43:59;;;;;;;;;;;;;;;13.05;68.35;99637.69;5091748;28;19919;-76
2023/11/08 05:46:24;;;;;;;;;;;;;;;13.17;67.63;99632.72;5091824;28;20429;-77
2023/11/08 05:48:50;;;;;;;;;;;;;;;13.21;67.55;99626.03;5091823;28;19963;-77
2023/11/08 05:51:15;;;;;;;;;;;;;;;13.22;69.55;99613.59;5073816;28;19920;-76
2023/11/08 05:53:40;;;;;;;;;;;;;;;13.24;68.15;99622.16;5071400;28;20378;-76
2023/11/08 05:56:06;;;;;;;;;;;;;;;13.33;69.07;99628.94;5071354;28;19966;-76
2023/11/08 05:58:33;;;;;;;;;;;;;;;13.40;69.00;99626.38;5071452;28;19947;-76
2023/11/08 06:00:58;;;;;;;;;;;;;;;13.38;68.60;99617.75;5080311;28;19923;-78
2023/11/08 06:03:24;;;;;;;;;;;;;;;13.44;67.28;99619.69;5084178;28;19923;-77
2023/11/08 06:05:50;;;;;;;;;;;;;;;13.47;69.57;99621.94;5084635;28;19920;-77
2023/11/08 06:08:15;;;;;;;;;;;;;;;13.51;69.15;99621.34;5093008;28;19912;-76
2023/11/08 06:10:40;;;;;;;;;;;;;;;13.56;70.86;99628.72;5091566;28;19970;-76
2023/11/08 06:13:05;;;;;;;;;;;;;;;13.61;69.74;99623.66;5057626;28;19912;-76
2023/11/08 06:15:31;;;;;;;;;;;;;;;13.63;68.01;99617.13;5087844;28;20372;-76
2023/11/08 06:17:56;;;;;;;;;;;;;;;13.71;69.53;99618.00;5086704;28;19916;-77
2023/11/08 06:20:22;;;;;;;;;;;;;;;13.79;69.04;99618.63;5078266;28;19940;-77
2023/11/08 06:22:48;;;;;;;;;;;;;;;13.86;69.36;99608.88;5090951;28;19916;-77
2023/11/08 06:25:13;;;;;;;;;;;;;;;13.90;68.64;99611.94;5095257;28;19912;-77
2023/11/08 06:27:39;;;;;;;;;;;;;;;13.96;69.02;99606.66;5076951;28;20407;-77
2023/11/08 06:30:04;;;;;;;;;;;;;;;13.99;69.60;99606.28;5095018;28;19915;-77
2023/11/08 06:32:29;;;;;;;;;;;;;;;14.07;68.63;99605.28;5095264;28;20332;-77
2023/11/08 06:35:00;;;;;;;;;;;;;;;14.16;68.00;99595.34;5076849;28;20319;-77
2023/11/08 06:37:26;;;;;;;;;;;;;;;14.20;68.24;99592.06;5094919;28;19919;-77
2023/11/08 06:39:51;;;;;;;;;;;;;;;14.24;69.04;99609.25;5093457;28;19912;-76
2023/11/08 06:42:16;;;;;;;;;;;;;;;14.26;67.77;99617.00;5094702;28;20399;-76
2023/11/08 06:44:41;;;;;;;;;;;;;;;14.27;68.61;99616.81;5094847;28;19912;-78
2023/11/08 06:47:07;;;;;;;;;;;;;;;14.28;67.75;99614.97;5094850;28;19920;-76
2023/11/08 06:49:32;;;;;;;;;;;;;;;14.26;67.38;99607.22;5094774;28;19912;-78
2023/11/08 06:51:57;;;;;;;;;;;;;;;14.30;67.65;99616.41;5094835;28;19920;-76
2023/11/08 06:54:22;;;;;;;;;;;;;;;14.38;68.23;99610.09;5094562;28;20465;-77
2023/11/08 06:56:48;;;;;;;;;;;;;;;14.44;68.13;99625.25;5094530;28;19919;-76
2023/11/08 06:59:13;;;;;;;;;;;;;;;14.47;66.85;99626.69;5094554;28;20431;-76
2023/11/08 07:01:40;;;;;;;;;;;;;;;14.49;66.61;99616.69;5094443;28;19912;-77
2023/11/08 07:04:05;;;;;;;;;;;;;;;14.50;67.34;99607.69;5094306;28;20320;-77
2023/11/08 07:06:31;;;;;;;;;;;;;;;14.54;67.41;99615.06;5094477;28;19912;-77
2023/11/08 07:08:56;;;;;;;;;;;;;;;14.60;67.08;99616.09;5094453;28;19962;-76
2023/11/08 07:11:24;;;;;;;;;;;;;;;14.68;67.43;99609.78;5094388;28;19950;-77
2023/11/08 07:13:49;;;;;;;;;;;;;;;14.70;66.30;99605.06;5092895;28;19919;-77
2023/11/08 07:16:14;;;;;;;;;;;;;;;14.69;66.51;99614.06;5093981;28;19916;-77
2023/11/08 07:18:39;;;;;;;;;;;;;;;14.69;67.44;99620.19;5094268;28;19915;-76
2023/11/08 07:21:05;;;;;;;;;;;;;;;14.66;67.01;99622.44;5094205;28;20391;-76
2023/11/08 07:23:30;;;;;;;;;;;;;;;14.66;67.50;99625.91;5094141;28;19919;-77
2023/11/08 07:25:55;;;;;;;;;;;;;;;14.68;68.35;99623.06;5092678;28;19918;-76
2023/11/08 07:28:20;;;;;;;;;;;;;;;14.69;68.27;99625.50;5093892;28;20381;-77
2023/11/08 07:30:46;;;;;;;;;;;;;;;14.73;67.59;99633.91;5093940;28;19923;-77
2023/11/08 07:33:11;;;;;;;;;;;;;;;14.73;67.29;99634.72;5094105;28;19912;-75
2023/11/08 07:35:36;;;;;;;;;;;;;;;14.76;67.44;99622.88;5092453;28;19919;-76
2023/11/08 07:38:02;;;;;;;;;;;;;;;14.78;68.07;99620.81;5093777;28;20011;-76
2023/11/08 07:40:27;;;;;;;;;;;;;;;14.80;67.39;99611.63;5093593;28;20057;-77
2023/11/08 07:42:52;;;;;;;;;;;;;;;14.78;68.77;99612.84;5093541;28;20333;-77
2023/11/08 07:45:18;;;;;;;;;;;;;;;14.81;68.22;99615.09;5093476;28;19920;-77
2023/11/08 07:47:45;;;;;;;;;;;;;;;14.83;68.12;99608.56;5086647;28;19916;-77
2023/11/08 07:50:11;;;;;;;;;;;;;;;14.87;67.08;99617.78;5092601;28;19916;-76
2023/11/08 07:52:37;;;;;;;;;;;;;;;14.82;68.84;99614.06;5090474;28;20032;-77
2023/11/08 07:55:02;;;;;;;;;;;;;;;14.81;68.98;99615.91;5074444;28;19920;-76
2023/11/08 07:57:28;;;;;;;;;;;;;;;14.82;68.82;99608.75;5076497;28;19916;-77
2023/11/08 07:59:53;;;;;;;;;;;;;;;14.83;68.51;99597.91;5077042;28;19966;-76
2023/11/08 08:02:19;;;;;;;;;;;;;;;14.83;68.75;99597.09;5092158;28;19961;-77
2023/11/08 08:04:45;;;;;;;;;;;;;;;14.85;69.06;99601.19;5093030;28;19920;-78
2023/11/08 08:07:11;;;;;;;;;;;;;;;14.93;67.19;99608.19;5093000;28;19965;-77
2023/11/08 08:09:36;;;;;;;;;;;;;;;14.87;66.80;99595.69;5087551;28;20306;-76
2023/11/08 08:12:02;;;;;;;;;;;;;;;14.80;69.57;99600.16;5084955;28;19927;-77
2023/11/08 08:14:27;;;;;;;;;;;;;;;14.80;69.15;99600.16;5067070;28;19920;-77
2023/11/08 08:16:52;;;;;;;;;;;;;;;14.73;69.80;99586.88;5072489;28;19913;-77
2023/11/08 08:19:17;;;;;;;;;;;;;;;14.73;68.56;99586.88;5072653;28;19962;-76
2023/11/08 08:21:47;;;;;;;;;;;;;;;14.82;69.55;99579.53;5072696;28;19912;-77
2023/11/08 08:24:14;;;;;;;;;;;;;;;14.89;69.86;99575.88;5072236;28;19913;-77
2023/11/08 08:26:39;;;;;;;;;;;;;;;14.96;68.75;99581.19;5081997;28;19912;-77
2023/11/08 08:29:05;;;;;;;;;;;;;;;15.04;68.42;99575.66;5083722;28;20389;-77
2023/11/08 08:31:30;;;;;;;;;;;;;;;15.06;68.11;99580.75;5080471;28;20487;-77
2023/11/08 08:33:57;;;;;;;;;;;;;;;15.10;68.84;99577.50;5081719;28;20328;-76
2023/11/08 08:36:22;;;;;;;;;;;;;;;15.14;67.94;99570.72;5078918;28;19916;-76
2023/11/08 08:38:48;;;;;;;;;;;;;;;15.15;67.84;99579.53;5088357;28;19916;-76
2023/11/08 08:41:13;;;;;;;;;;;;;;;15.01;68.52;99578.72;5082791;28;19916;-77
2023/11/08 08:43:38;;;;;;;;;;;;;;;14.92;70.01;99572.81;5086727;28;19916;-76
2023/11/08 08:46:04;;;;;;;;;;;;;;;15.03;68.76;99581.19;5085437;28;19916;-77
2023/11/08 08:48:29;;;;;;;;;;;;;;;15.14;68.60;99576.06;5078311;28;19922;-77
2023/11/08 08:50:55;;;;;;;;;;;;;;;15.12;69.93;99572.78;5077598;28;20400;-76
2023/11/08 08:53:20;;;;;;;;;;;;;;;15.23;69.53;99574.00;5091594;28;20026;-77
2023/11/08 08:55:46;;;;;;;;;;;;;;;15.32;68.78;99564.75;5086718;28;19916;-77
2023/11/08 08:58:11;;;;;;;;;;;;;;;15.33;69.74;99571.72;5070219;28;20407;-77
2023/11/08 09:00:36;;;;;;;;;;;;;;;15.41;69.29;99573.34;5081092;28;19916;-77
2023/11/08 09:03:03;;;;;;;;;;;;;;;15.49;69.35;99573.94;5090254;28;20317;-77
2023/11/08 09:05:29;;;;;;;;;;;;;;;15.50;68.14;99559.59;5091986;28;19916;-77
2023/11/08 09:07:57;;;;;;;;;;;;;;;15.53;67.93;99547.72;5071743;28;19916;-77
2023/11/08 09:10:23;;;;;;;;;;;;;;;15.65;68.37;99547.94;5079688;28;19945;-76
2023/11/08 09:12:48;;;;;;;;;;;;;;;15.74;66.40;99533.38;5089958;28;19927;-77
2023/11/08 09:15:14;;;;;;;;;;;;;;;15.73;66.87;99527.22;5091606;28;19919;-77
2023/11/08 09:17:39;;;;;;;;;;;;;;;15.72;68.27;99532.75;5091665;28;19952;-77
2023/11/08 09:20:07;;;;;;;;;;;;;;;15.56;68.20;99524.16;5083249;28;19924;-77
2023/11/08 09:22:33;;;;;;;;;;;;;;;15.64;68.61;99507.19;5059583;28;19916;-76
2023/11/08 09:24:58;;;;;;;;;;;;;;;15.70;68.40;99509.00;5073486;28;19931;-76
2023/11/08 09:27:23;;;;;;;;;;;;;;;15.79;67.41;99520.22;5062230;28;20015;-77
2023/11/08 09:29:49;;;;;;;;;;;;;;;15.68;68.21;99535.03;5076069;28;19944;-76
2023/11/08 09:32:14;;;;;;;;;;;;;;;15.70;67.90;99535.63;5076185;28;19924;-76
2023/11/08 09:34:40;;;;;;;;;;;;;;;15.69;69.12;99534.00;5088535;28;20381;-76
2023/11/08 09:37:05;;;;;;;;;;;;;;;15.68;68.36;99537.69;5074312;28;19921;-77
2023/11/08 09:39:31;;;;;;;;;;;;;;;15.65;68.26;99530.13;5082221;28;19920;-76
2023/11/08 09:41:57;;;;;;;;;;;;;;;15.77;67.69;99525.78;5090015;28;19923;-77
2023/11/08 09:44:24;;;;;;;;;;;;;;;15.85;67.47;99520.19;5082293;28;19923;-76
2023/11/08 09:46:50;;;;;;;;;;;;;;;15.83;67.45;99526.78;5080075;28;19970;-75
2023/11/08 09:49:15;;;;;;;;;;;;;;;15.89;67.58;99528.59;5081904;28;19916;-76
2023/11/08 09:51:40;;;;;;;;;;;;;;;16.04;67.03;99525.63;5081713;28;19952;-77
2023/11/08 09:54:06;;;;;;;;;;;;;;;16.13;67.49;99527.84;5086051;28;19926;-77
2023/11/08 09:56:33;;;;;;;;;;;;;;;16.21;67.38;99519.59;5088980;28;19941;-77
2023/11/08 09:58:59;;;;;;;;;;;;;;;16.31;66.24;99520.94;5081763;28;19912;-77
2023/11/08 10:01:27;;;;;;;;;;;;;;;16.43;66.48;99517.41;5090061;28;19920;-76
2023/11/08 10:03:53;;;;;;;;;;;;;;;16.35;66.41;99507.00;5089906;28;19920;-75
2023/11/08 10:06:19;;;;;;;;;;;;;;;16.36;66.70;99511.31;5085800;28;19923;-77
2023/11/08 10:08:46;;;;;;;;;;;;;;;16.34;66.85;99504.53;5072943;28;19920;-76
2023/11/08 10:11:14;;;;;;;;;;;;;;;16.44;66.49;99512.91;5074408;28;19921;-76
2023/11/08 10:13:40;;;;;;;;;;;;;;;16.46;66.19;99510.81;5078264;28;19912;-77
2023/11/08 10:16:05;;;;;;;;;;;;;;;16.46;66.70;99495.66;5072041;28;19916;-76
2023/11/08 10:18:31;;;;;;;;;;;;;;;16.47;66.33;99483.16;5083839;28;19912;-77
2023/11/08 10:21:08;;;;;;;;;;;;;;;16.60;66.39;99482.22;5089322;28;19998;-77
2023/11/08 10:23:34;;;;;;;;;;;;;;;16.67;64.99;99478.50;5053111;28;19923;-76
2023/11/08 10:26:19;;;;;;;;;;;;;;;16.72;65.98;99485.81;5073522;28;19913;-76
2023/11/08 10:29:05;;;;;;;;;;;;;;;16.82;65.97;99492.28;5076661;28;19916;-77
2023/11/08 10:31:43;;;;;;;;;;;;;;;16.84;65.07;99484.06;5086350;28;20400;-77
2023/11/08 10:34:12;;;;;;;;;;;;;;;16.84;65.60;99484.06;5085117;28;20328;-76
2023/11/08 10:36:38;;;;;;;;;;;;;;;16.85;65.65;99475.03;5082425;28;19967;-76
2023/11/08 10:39:07;;;;;;;;;;;;;;;16.87;65.09;99474.81;5070918;28;19951;-76
2023/11/08 10:41:35;;;;;;;;;;;;;;;16.89;65.32;99468.22;5091167;28;20017;-76
2023/11/08 10:44:07;;;;;;;;;;;;;;;16.89;64.66;99473.56;5081480;28;20392;-76
2023/11/08 10:46:33;;;;;;;;;;;;;;;16.93;64.39;99461.41;5076370;28;19916;-77
2023/11/08 10:48:59;;;;;;;;;;;;;;;16.88;65.77;99455.94;5074241;28;19936;-77
2023/11/08 10:51:24;;;;;;;;;;;;;;;16.81;65.54;99449.84;5074562;28;19970;-76
2023/11/08 10:53:49;;;;;;;;;;;;;;;16.80;65.93;99450.88;5075087;28;19962;-77
2023/11/08 10:56:17;;;;;;;;;;;;;;;16.78;65.42;99444.97;5074438;28;19942;-76
2023/11/08 10:58:43;;;;;;;;;;;;;;;16.78;65.42;99429.78;5081732;28;19912;-77
2023/11/08 11:01:12;;;;;;;;;;;;;;;16.77;66.08;99430.00;5085648;28;19921;-76
2023/11/08 11:03:38;;;;;;;;;;;;;;;16.84;65.56;99438.75;5092340;28;19920;-77
2023/11/08 11:06:05;;;;;;;;;;;;;;;16.96;65.22;99438.81;5064237;28;19916;-77
2023/11/08 11:08:33;;;;;;;;;;;;;;;17.00;65.06;99434.66;5084153;28;19923;-78
2023/11/08 11:10:58;;;;;;;;;;;;;;;17.00;64.86;99435.50;5084996;28;20396;-77
2023/11/08 11:13:29;;;;;;;;;;;;;;;17.04;64.85;99434.00;5089028;28;19920;-77
2023/11/08 11:15:58;;;;;;;;;;;;;;;17.07;64.69;99427.41;5091726;28;19923;-77
2023/11/08 11:18:25;;;;;;;;;;;;;;;17.14;64.86;99414.84;5092136;28;20442;-77
2023/11/08 11:20:58;;;;;;;;;;;;;;;17.15;64.37;99413.81;5092051;28;20010;-77
2023/11/08 11:23:33;;;;;;;;;;;;;;;17.15;64.35;99422.63;5093880;28;19912;-77
2023/11/08 11:25:59;;;;;;;;;;;;;;;17.14;64.21;99412.97;5075771;28;19912;-77
2023/11/08 11:28:42;;;;;;;;;;;;;;;17.16;64.31;99402.09;5081340;28;20419;-77
2023/11/08 11:31:27;;;;;;;;;;;;;;;17.18;64.44;99413.34;5084422;28;19920;-78
2023/11/08 11:33:53;;;;;;;;;;;;;;;17.24;64.08;99401.78;5074615;28;19916;-77
2023/11/08 11:36:19;;;;;;;;;;;;;;;17.30;64.18;99413.41;5074948;28;19920;-77
2023/11/08 11:38:44;;;;;;;;;;;;;;;17.31;63.95;99415.03;5079092;28;19916;-77
2023/11/08 11:41:20;;;;;;;;;;;;;;;17.36;64.21;99396.50;5077828;28;20294;-77
2023/11/08 11:43:46;;;;;;;;;;;;;;;17.34;64.24;99406.59;5077681;28;19916;-77
2023/11/08 11:46:16;;;;;;;;;;;;;;;17.38;63.44;99402.44;5079865;28;20370;-77
2023/11/08 11:48:43;;;;;;;;;;;;;;;17.39;64.23;99410.22;5061023;28;19924;-77
2023/11/08 11:51:08;;;;;;;;;;;;;;;17.44;63.81;99414.88;5089803;28;19920;-76
2023/11/08 11:53:34;;;;;;;;;;;;;;;17.53;63.97;99418.84;5074176;28;20911;-78
2023/11/08 11:56:05;;;;;;;;;;;;;;;17.57;63.51;99417.34;5080411;28;20357;-77
2023/11/08 11:58:31;;;;;;;;;;;;;;;17.59;63.78;99430.47;5078722;28;20029;-79
2023/11/08 12:00:57;;;;;;;;;;;;;;;17.63;63.70;99445.00;5056763;28;20011;-76
2023/11/08 12:03:22;;;;;;;;;;;;;;;17.66;63.36;99428.53;5084879;28;19953;-77
2023/11/08 12:05:48;;;;;;;;;;;;;;;17.74;63.02;99425.56;5093279;28;19912;-76
2023/11/08 12:08:14;;;;;;;;;;;;;;;17.77;63.03;99439.28;5076572;28;20415;-76
2023/11/08 12:10:39;;;;;;;;;;;;;;;17.74;63.34;99444.28;5072356;28;19912;-77
2023/11/08 12:13:04;;;;;;;;;;;;;;;17.75;63.18;99444.03;5088859;28;20008;-76
2023/11/08 12:15:32;;;;;;;;;;;;;;;17.82;62.78;99435.13;5091524;28;20499;-77
2023/11/08 12:17:58;;;;;;;;;;;;;;;17.84;62.39;99439.22;5074369;28;19923;-77
2023/11/08 12:20:26;;;;;;;;;;;;;;;17.85;62.96;99424.81;5069457;28;19955;-77
2023/11/08 12:22:53;;;;;;;;;;;;;;;17.89;63.04;99427.84;5087091;28;19916;-77
2023/11/08 12:25:19;;;;;;;;;;;;;;;17.92;63.02;99430.88;5088273;28;19917;-75
2023/11/08 12:27:44;;;;;;;;;;;;;;;17.96;62.72;99428.56;5090898;28;19973;-75
2023/11/08 12:30:10;;;;;;;;;;;;;;;18.01;62.59;99428.69;5091735;28;19916;-75
2023/11/08 12:32:35;;;;;;;;;;;;;;;18.05;62.35;99429.88;5092579;28;19990;-74
2023/11/08 12:35:01;;;;;;;;;;;;;;;18.10;62.80;99425.47;5071228;28;19959;-77
2023/11/08 12:37:27;;;;;;;;;;;;;;;18.16;62.48;99433.59;5063316;28;19916;-78
2023/11/08 12:40:12;;;;;;;;;;;;;;;18.19;62.22;99422.44;5072965;28;19923;-78
2023/11/08 12:42:37;;;;;;;;;;;;;;;18.20;62.32;99426.75;5083069;28;19939;-77